sensor_id;sensor_type;location;lat;lon;timestamp;temperature;humidity
6355;DHT22;3210;48.708;9.030;2023-09-12T00:00:44;17.10;99.90
6355;DHT22;3210;48.708;9.030;2023-09-12T00:03:11;17.00;99.90
6355;DHT22;3210;48.708;9.030;2023-09-12T00:05:38;17.10;99.90
6355;DHT22;3210;48.708;9.030;2023-09-12T00:08:05;17.10;99.90
6355;DHT22;3210;48.708;9.030;2023-09-12T00:10:32;17.10;99.90
6355;DHT22;3210;48.708;9.030;2023-09-12T00:12:59;17.00;99.90
6355;DHT22;3210;48.708;9.030;2023-09-12T00:15:29;17.00;99.90
6355;DHT22;3210;48.708;9.030;2023-09-12T00:17:55;17.00;99.90
6355;DHT22;3210;48.708;9.030;2023-09-12T00:20:22;16.90;99.90
6355;DHT22;3210;48.708;9.030;2023-09-12T00:22:49;16.90;99.90
6355;DHT22;3210;48.708;9.030;2023-09-12T00:25:16;16.90;1.00
6355;DHT22;3210;48.708;9.030;2023-09-12T00:27:43;17.00;99.90
6355;DHT22;3210;48.708;9.030;2023-09-12T00:30:11;17.00;99.90
6355;DHT22;3210;48.708;9.030;2023-09-12T00:32:39;16.90;1.00
6355;DHT22;3210;48.708;9.030;2023-09-12T00:35:06;16.90;1.00
6355;DHT22;3210;48.708;9.030;2023-09-12T00:37:33;16.80;1.00
6355;DHT22;3210;48.708;9.030;2023-09-12T00:40:00;16.90;1.00
6355;DHT22;3210;48.708;9.030;2023-09-12T00:42:27;16.90;1.00
6355;DHT22;3210;48.708;9.030;2023-09-12T00:44:54;16.80;1.00
6355;DHT22;3210;48.708;9.030;2023-09-12T00:47:21;16.80;1.00
6355;DHT22;3210;48.708;9.030;2023-09-12T00:49:51;16.70;1.00
6355;DHT22;3210;48.708;9.030;2023-09-12T00:52:18;16.70;1.00
6355;DHT22;3210;48.708;9.030;2023-09-12T00:54:46;16.60;39.60
6355;DHT22;3210;48.708;9.030;2023-09-12T00:57:13;16.60;99.90
6355;DHT22;3210;48.708;9.030;2023-09-12T00:59:40;16.60;93.10
6355;DHT22;3210;48.708;9.030;2023-09-12T01:02:07;16.60;99.90
6355;DHT22;3210;48.708;9.030;2023-09-12T01:04:35;16.60;99.90
6355;DHT22;3210;48.708;9.030;2023-09-12T01:07:04;16.50;99.90
6355;DHT22;3210;48.708;9.030;2023-09-12T01:09:31;16.60;99.90
6355;DHT22;3210;48.708;9.030;2023-09-12T01:11:58;16.60;65.70
6355;DHT22;3210;48.708;9.030;2023-09-12T01:14:26;16.50;1.00
6355;DHT22;3210;48.708;9.030;2023-09-12T01:16:53;16.50;1.00
6355;DHT22;3210;48.708;9.030;2023-09-12T01:19:19;16.50;1.00
6355;DHT22;3210;48.708;9.030;2023-09-12T01:22:37;16.50;1.00
6355;DHT22;3210;48.708;9.030;2023-09-12T01:25:34;16.50;1.00
6355;DHT22;3210;48.708;9.030;2023-09-12T01:28:06;16.50;1.00
6355;DHT22;3210;48.708;9.030;2023-09-12T01:30:35;16.40;1.00
6355;DHT22;3210;48.708;9.030;2023-09-12T01:33:02;16.40;1.00
6355;DHT22;3210;48.708;9.030;2023-09-12T01:35:29;16.40;1.00
6355;DHT22;3210;48.708;9.030;2023-09-12T01:37:56;16.40;1.00
6355;DHT22;3210;48.708;9.030;2023-09-12T01:40:29;16.40;1.00
6355;DHT22;3210;48.708;9.030;2023-09-12T01:43:00;16.40;67.00
6355;DHT22;3210;48.708;9.030;2023-09-12T01:45:29;16.30;99.90
6355;DHT22;3210;48.708;9.030;2023-09-12T01:47:55;16.30;99.90
6355;DHT22;3210;48.708;9.030;2023-09-12T01:50:23;16.20;99.90
6355;DHT22;3210;48.708;9.030;2023-09-12T01:52:52;16.30;99.90
6355;DHT22;3210;48.708;9.030;2023-09-12T01:55:20;16.30;99.90
6355;DHT22;3210;48.708;9.030;2023-09-12T01:57:48;16.30;99.90
6355;DHT22;3210;48.708;9.030;2023-09-12T02:00:17;16.20;99.90
6355;DHT22;3210;48.708;9.030;2023-09-12T02:02:46;16.20;99.90
6355;DHT22;3210;48.708;9.030;2023-09-12T02:05:15;16.20;99.90
6355;DHT22;3210;48.708;9.030;2023-09-12T02:07:44;16.20;99.90
6355;DHT22;3210;48.708;9.030;2023-09-12T02:10:12;16.10;99.90
6355;DHT22;3210;48.708;9.030;2023-09-12T02:12:40;16.10;99.90
6355;DHT22;3210;48.708;9.030;2023-09-12T02:15:07;16.20;99.90
6355;DHT22;3210;48.708;9.030;2023-09-12T02:17:34;16.10;99.90
6355;DHT22;3210;48.708;9.030;2023-09-12T02:20:03;16.20;99.90
6355;DHT22;3210;48.708;9.030;2023-09-12T02:22:31;16.20;99.90
6355;DHT22;3210;48.708;9.030;2023-09-12T02:24:58;16.20;99.90
6355;DHT22;3210;48.708;9.030;2023-09-12T02:27:25;16.10;99.90
6355;DHT22;3210;48.708;9.030;2023-09-12T02:29:51;16.10;1.00
6355;DHT22;3210;48.708;9.030;2023-09-12T02:32:18;16.10;1.00
6355;DHT22;3210;48.708;9.030;2023-09-12T02:34:45;16.00;1.00
6355;DHT22;3210;48.708;9.030;2023-09-12T02:37:13;16.00;78.20
6355;DHT22;3210;48.708;9.030;2023-09-12T02:39:41;16.00;96.70
6355;DHT22;3210;48.708;9.030;2023-09-12T02:42:08;16.00;1.00
6355;DHT22;3210;48.708;9.030;2023-09-12T02:44:34;16.00;1.00
6355;DHT22;3210;48.708;9.030;2023-09-12T02:47:02;16.00;1.00
6355;DHT22;3210;48.708;9.030;2023-09-12T02:49:30;16.10;1.00
6355;DHT22;3210;48.708;9.030;2023-09-12T02:51:57;15.90;99.90
6355;DHT22;3210;48.708;9.030;2023-09-12T02:54:25;16.00;32.90
6355;DHT22;3210;48.708;9.030;2023-09-12T02:56:52;16.10;1.00
6355;DHT22;3210;48.708;9.030;2023-09-12T02:59:18;16.10;99.90
6355;DHT22;3210;48.708;9.030;2023-09-12T03:01:45;16.10;99.90
6355;DHT22;3210;48.708;9.030;2023-09-12T03:04:12;16.00;99.90
6355;DHT22;3210;48.708;9.030;2023-09-12T03:06:39;15.90;43.90
6355;DHT22;3210;48.708;9.030;2023-09-12T03:09:06;15.90;99.10
6355;DHT22;3210;48.708;9.030;2023-09-12T03:11:34;15.80;99.90
6355;DHT22;3210;48.708;9.030;2023-09-12T03:14:01;15.90;99.90
6355;DHT22;3210;48.708;9.030;2023-09-12T03:16:28;15.90;99.90
6355;DHT22;3210;48.708;9.030;2023-09-12T03:18:54;15.90;99.90
6355;DHT22;3210;48.708;9.030;2023-09-12T03:21:21;15.90;99.90
6355;DHT22;3210;48.708;9.030;2023-09-12T03:23:48;15.90;1.00
6355;DHT22;3210;48.708;9.030;2023-09-12T03:26:15;15.90;99.90
6355;DHT22;3210;48.708;9.030;2023-09-12T03:28:43;15.80;1.00
6355;DHT22;3210;48.708;9.030;2023-09-12T03:31:11;15.80;5.50
6355;DHT22;3210;48.708;9.030;2023-09-12T03:33:38;15.80;1.00
6355;DHT22;3210;48.708;9.030;2023-09-12T03:36:05;15.80;1.00
6355;DHT22;3210;48.708;9.030;2023-09-12T03:38:33;15.80;1.00
6355;DHT22;3210;48.708;9.030;2023-09-12T03:40:59;15.80;1.00
6355;DHT22;3210;48.708;9.030;2023-09-12T03:43:26;16.00;99.90
6355;DHT22;3210;48.708;9.030;2023-09-12T03:45:55;16.10;99.90
6355;DHT22;3210;48.708;9.030;2023-09-12T03:48:21;15.90;99.90
6355;DHT22;3210;48.708;9.030;2023-09-12T03:50:48;15.80;1.00
6355;DHT22;3210;48.708;9.030;2023-09-12T03:53:15;15.80;1.00
6355;DHT22;3210;48.708;9.030;2023-09-12T03:55:42;15.80;1.00
6355;DHT22;3210;48.708;9.030;2023-09-12T03:58:09;15.80;1.00
6355;DHT22;3210;48.708;9.030;2023-09-12T04:00:36;15.70;1.00
6355;DHT22;3210;48.708;9.030;2023-09-12T04:03:04;15.70;99.90
6355;DHT22;3210;48.708;9.030;2023-09-12T04:05:31;15.80;79.00
6355;DHT22;3210;48.708;9.030;2023-09-12T04:07:58;15.80;48.90
6355;DHT22;3210;48.708;9.030;2023-09-12T04:10:25;15.70;99.90
6355;DHT22;3210;48.708;9.030;2023-09-12T04:12:51;15.70;99.90
6355;DHT22;3210;48.708;9.030;2023-09-12T04:15:18;15.80;99.90
6355;DHT22;3210;48.708;9.030;2023-09-12T04:17:45;15.80;99.90
6355;DHT22;3210;48.708;9.030;2023-09-12T04:20:13;15.80;99.90
6355;DHT22;3210;48.708;9.030;2023-09-12T04:22:41;15.80;78.30
6355;DHT22;3210;48.708;9.030;2023-09-12T04:25:08;15.80;1.00
6355;DHT22;3210;48.708;9.030;2023-09-12T04:27:35;15.70;1.00
6355;DHT22;3210;48.708;9.030;2023-09-12T04:30:02;15.70;99.90
6355;DHT22;3210;48.708;9.030;2023-09-12T04:32:29;15.70;99.90
6355;DHT22;3210;48.708;9.030;2023-09-12T04:34:56;15.70;1.00
6355;DHT22;3210;48.708;9.030;2023-09-12T04:37:24;15.70;99.90
6355;DHT22;3210;48.708;9.030;2023-09-12T04:39:51;15.70;99.90
6355;DHT22;3210;48.708;9.030;2023-09-12T04:42:17;15.80;99.90
6355;DHT22;3210;48.708;9.030;2023-09-12T04:44:44;15.80;99.90
6355;DHT22;3210;48.708;9.030;2023-09-12T04:47:11;15.80;99.90
6355;DHT22;3210;48.708;9.030;2023-09-12T04:49:38;15.80;99.90
6355;DHT22;3210;48.708;9.030;2023-09-12T04:52:08;15.90;99.90
6355;DHT22;3210;48.708;9.030;2023-09-12T04:54:36;15.90;99.90
6355;DHT22;3210;48.708;9.030;2023-09-12T04:57:03;15.90;99.90
6355;DHT22;3210;48.708;9.030;2023-09-12T04:59:30;15.90;99.90
6355;DHT22;3210;48.708;9.030;2023-09-12T05:01:57;16.00;99.90
6355;DHT22;3210;48.708;9.030;2023-09-12T05:04:24;15.90;99.90
6355;DHT22;3210;48.708;9.030;2023-09-12T05:06:50;16.00;99.90
6355;DHT22;3210;48.708;9.030;2023-09-12T05:09:19;16.00;1.00
6355;DHT22;3210;48.708;9.030;2023-09-12T05:11:47;15.90;66.00
6355;DHT22;3210;48.708;9.030;2023-09-12T05:14:14;16.00;99.90
6355;DHT22;3210;48.708;9.030;2023-09-12T05:16:40;16.10;99.90
6355;DHT22;3210;48.708;9.030;2023-09-12T05:19:07;16.20;99.90
6355;DHT22;3210;48.708;9.030;2023-09-12T05:21:34;16.20;99.90
6355;DHT22;3210;48.708;9.030;2023-09-12T05:24:01;16.20;99.90
6355;DHT22;3210;48.708;9.030;2023-09-12T05:26:27;16.30;99.90
6355;DHT22;3210;48.708;9.030;2023-09-12T05:28:56;16.40;99.90
6355;DHT22;3210;48.708;9.030;2023-09-12T05:31:22;16.50;99.90
6355;DHT22;3210;48.708;9.030;2023-09-12T05:33:49;16.60;99.90
6355;DHT22;3210;48.708;9.030;2023-09-12T05:36:16;16.80;99.90
6355;DHT22;3210;48.708;9.030;2023-09-12T05:38:43;17.00;14.60
6355;DHT22;3210;48.708;9.030;2023-09-12T05:41:10;17.00;1.00
6355;DHT22;3210;48.708;9.030;2023-09-12T05:43:36;17.20;1.00
6355;DHT22;3210;48.708;9.030;2023-09-12T05:46:04;17.30;1.00
6355;DHT22;3210;48.708;9.030;2023-09-12T05:48:31;17.40;1.00
6355;DHT22;3210;48.708;9.030;2023-09-12T05:50:58;17.50;99.90
6355;DHT22;3210;48.708;9.030;2023-09-12T05:53:25;17.70;99.90
6355;DHT22;3210;48.708;9.030;2023-09-12T05:55:51;17.80;1.00
6355;DHT22;3210;48.708;9.030;2023-09-12T05:58:18;17.80;1.00
6355;DHT22;3210;48.708;9.030;2023-09-12T06:00:45;17.90;1.00
6355;DHT22;3210;48.708;9.030;2023-09-12T06:03:14;18.00;1.00
6355;DHT22;3210;48.708;9.030;2023-09-12T06:05:41;18.10;1.00
6355;DHT22;3210;48.708;9.030;2023-09-12T06:08:08;18.10;1.00
6355;DHT22;3210;48.708;9.030;2023-09-12T06:10:35;18.30;1.00
6355;DHT22;3210;48.708;9.030;2023-09-12T06:13:02;18.40;1.00
6355;DHT22;3210;48.708;9.030;2023-09-12T06:15:29;18.40;1.00
6355;DHT22;3210;48.708;9.030;2023-09-12T06:17:56;18.50;1.00
6355;DHT22;3210;48.708;9.030;2023-09-12T06:20:24;18.50;99.90
6355;DHT22;3210;48.708;9.030;2023-09-12T06:22:51;18.60;99.90
6355;DHT22;3210;48.708;9.030;2023-09-12T06:25:18;18.80;99.90
6355;DHT22;3210;48.708;9.030;2023-09-12T06:27:44;18.80;92.80
6355;DHT22;3210;48.708;9.030;2023-09-12T06:30:12;18.90;96.60
6355;DHT22;3210;48.708;9.030;2023-09-12T06:32:39;18.90;40.80
6355;DHT22;3210;48.708;9.030;2023-09-12T06:35:07;18.90;26.80
6355;DHT22;3210;48.708;9.030;2023-09-12T06:37:37;19.00;39.90
6355;DHT22;3210;48.708;9.030;2023-09-12T06:40:05;19.10;99.90
6355;DHT22;3210;48.708;9.030;2023-09-12T06:42:32;19.10;99.90
6355;DHT22;3210;48.708;9.030;2023-09-12T06:44:59;19.20;99.90
6355;DHT22;3210;48.708;9.030;2023-09-12T06:47:26;19.30;99.90
6355;DHT22;3210;48.708;9.030;2023-09-12T06:49:53;19.40;99.90
6355;DHT22;3210;48.708;9.030;2023-09-12T06:52:19;19.40;1.00
6355;DHT22;3210;48.708;9.030;2023-09-12T06:54:47;19.50;1.00
6355;DHT22;3210;48.708;9.030;2023-09-12T06:57:14;19.50;1.00
6355;DHT22;3210;48.708;9.030;2023-09-12T06:59:41;19.60;1.00
6355;DHT22;3210;48.708;9.030;2023-09-12T07:02:08;19.70;1.00
6355;DHT22;3210;48.708;9.030;2023-09-12T07:04:36;19.90;1.00
6355;DHT22;3210;48.708;9.030;2023-09-12T07:07:03;20.00;99.90
6355;DHT22;3210;48.708;9.030;2023-09-12T07:09:30;20.10;99.90
6355;DHT22;3210;48.708;9.030;2023-09-12T07:11:58;20.30;99.90
6355;DHT22;3210;48.708;9.030;2023-09-12T07:14:25;20.40;99.90
6355;DHT22;3210;48.708;9.030;2023-09-12T07:16:52;20.60;99.90
6355;DHT22;3210;48.708;9.030;2023-09-12T07:19:19;20.90;47.40
6355;DHT22;3210;48.708;9.030;2023-09-12T07:21:46;21.10;8.60
6355;DHT22;3210;48.708;9.030;2023-09-12T07:24:13;21.20;17.30
6355;DHT22;3210;48.708;9.030;2023-09-12T07:26:40;21.50;1.00
6355;DHT22;3210;48.708;9.030;2023-09-12T07:29:08;21.70;1.00
6355;DHT22;3210;48.708;9.030;2023-09-12T07:31:35;21.90;1.00
6355;DHT22;3210;48.708;9.030;2023-09-12T07:34:01;22.10;1.00
6355;DHT22;3210;48.708;9.030;2023-09-12T07:36:29;22.30;1.00
6355;DHT22;3210;48.708;9.030;2023-09-12T07:38:55;22.50;1.00
6355;DHT22;3210;48.708;9.030;2023-09-12T07:41:22;22.70;1.00
6355;DHT22;3210;48.708;9.030;2023-09-12T07:43:49;22.80;1.00
6355;DHT22;3210;48.708;9.030;2023-09-12T07:46:17;22.80;1.00
6355;DHT22;3210;48.708;9.030;2023-09-12T07:48:44;22.80;1.00
6355;DHT22;3210;48.708;9.030;2023-09-12T07:51:12;22.90;1.00
6355;DHT22;3210;48.708;9.030;2023-09-12T07:53:40;23.00;1.00
6355;DHT22;3210;48.708;9.030;2023-09-12T07:56:11;23.00;1.00
6355;DHT22;3210;48.708;9.030;2023-09-12T07:58:38;23.00;1.00
6355;DHT22;3210;48.708;9.030;2023-09-12T08:01:06;23.00;1.00
6355;DHT22;3210;48.708;9.030;2023-09-12T08:03:35;23.00;1.00
6355;DHT22;3210;48.708;9.030;2023-09-12T08:06:02;23.00;1.00
6355;DHT22;3210;48.708;9.030;2023-09-12T08:08:29;23.20;1.00
6355;DHT22;3210;48.708;9.030;2023-09-12T08:10:56;23.20;1.00
6355;DHT22;3210;48.708;9.030;2023-09-12T08:13:26;23.30;1.00
6355;DHT22;3210;48.708;9.030;2023-09-12T08:15:53;23.20;1.00
6355;DHT22;3210;48.708;9.030;2023-09-12T08:18:19;23.30;1.00
6355;DHT22;3210;48.708;9.030;2023-09-12T08:20:47;23.30;1.00
6355;DHT22;3210;48.708;9.030;2023-09-12T08:23:14;23.40;1.00
6355;DHT22;3210;48.708;9.030;2023-09-12T08:25:41;23.60;1.00
6355;DHT22;3210;48.708;9.030;2023-09-12T08:28:08;23.60;1.00
6355;DHT22;3210;48.708;9.030;2023-09-12T08:30:35;23.80;1.00
6355;DHT22;3210;48.708;9.030;2023-09-12T08:33:01;23.90;1.00
6355;DHT22;3210;48.708;9.030;2023-09-12T08:35:29;24.00;1.00
6355;DHT22;3210;48.708;9.030;2023-09-12T08:37:57;24.10;1.00
6355;DHT22;3210;48.708;9.030;2023-09-12T08:40:24;24.30;1.00
6355;DHT22;3210;48.708;9.030;2023-09-12T08:42:52;24.40;1.00
6355;DHT22;3210;48.708;9.030;2023-09-12T08:45:19;24.60;1.00
6355;DHT22;3210;48.708;9.030;2023-09-12T08:47:50;24.80;1.00
6355;DHT22;3210;48.708;9.030;2023-09-12T08:50:18;24.90;1.00
6355;DHT22;3210;48.708;9.030;2023-09-12T08:52:46;25.10;1.00
6355;DHT22;3210;48.708;9.030;2023-09-12T08:55:15;25.20;1.00
6355;DHT22;3210;48.708;9.030;2023-09-12T08:57:43;25.20;1.00
6355;DHT22;3210;48.708;9.030;2023-09-12T09:00:11;25.30;1.00
6355;DHT22;3210;48.708;9.030;2023-09-12T09:02:39;25.40;1.00
6355;DHT22;3210;48.708;9.030;2023-09-12T09:05:07;25.50;1.00
6355;DHT22;3210;48.708;9.030;2023-09-12T09:07:35;25.70;1.00
6355;DHT22;3210;48.708;9.030;2023-09-12T09:10:04;26.00;1.00
6355;DHT22;3210;48.708;9.030;2023-09-12T09:12:33;26.10;1.00
6355;DHT22;3210;48.708;9.030;2023-09-12T09:15:22;26.20;1.00
6355;DHT22;3210;48.708;9.030;2023-09-12T09:17:49;26.30;1.00
6355;DHT22;3210;48.708;9.030;2023-09-12T09:20:26;26.40;1.00
6355;DHT22;3210;48.708;9.030;2023-09-12T09:23:00;26.50;1.00
6355;DHT22;3210;48.708;9.030;2023-09-12T09:25:30;26.60;1.00
6355;DHT22;3210;48.708;9.030;2023-09-12T09:28:01;26.70;1.00
6355;DHT22;3210;48.708;9.030;2023-09-12T09:30:42;26.80;1.00
6355;DHT22;3210;48.708;9.030;2023-09-12T09:33:10;27.00;1.00
6355;DHT22;3210;48.708;9.030;2023-09-12T09:35:37;27.20;1.00
6355;DHT22;3210;48.708;9.030;2023-09-12T09:38:06;27.30;1.00
6355;DHT22;3210;48.708;9.030;2023-09-12T09:40:34;27.50;1.00
6355;DHT22;3210;48.708;9.030;2023-09-12T09:43:03;27.60;1.00
6355;DHT22;3210;48.708;9.030;2023-09-12T09:45:31;27.60;1.00
6355;DHT22;3210;48.708;9.030;2023-09-12T09:47:58;27.60;1.00
6355;DHT22;3210;48.708;9.030;2023-09-12T09:50:33;27.60;1.00
6355;DHT22;3210;48.708;9.030;2023-09-12T09:53:01;27.70;1.00
6355;DHT22;3210;48.708;9.030;2023-09-12T09:55:30;27.90;1.00
6355;DHT22;3210;48.708;9.030;2023-09-12T09:57:57;28.00;1.00
6355;DHT22;3210;48.708;9.030;2023-09-12T10:00:25;28.10;1.00
6355;DHT22;3210;48.708;9.030;2023-09-12T10:02:55;28.20;1.00
6355;DHT22;3210;48.708;9.030;2023-09-12T10:05:22;28.20;1.00
6355;DHT22;3210;48.708;9.030;2023-09-12T10:07:50;28.30;1.00
6355;DHT22;3210;48.708;9.030;2023-09-12T10:10:18;28.40;1.00
6355;DHT22;3210;48.708;9.030;2023-09-12T10:12:49;28.60;1.00
6355;DHT22;3210;48.708;9.030;2023-09-12T10:15:19;28.70;1.00
6355;DHT22;3210;48.708;9.030;2023-09-12T10:17:52;29.00;1.00
6355;DHT22;3210;48.708;9.030;2023-09-12T10:20:24;29.10;1.00
6355;DHT22;3210;48.708;9.030;2023-09-12T10:22:59;29.10;1.00
6355;DHT22;3210;48.708;9.030;2023-09-12T10:25:29;29.20;1.00
6355;DHT22;3210;48.708;9.030;2023-09-12T10:27:56;29.10;1.00
6355;DHT22;3210;48.708;9.030;2023-09-12T10:30:23;28.90;1.00
6355;DHT22;3210;48.708;9.030;2023-09-12T10:32:53;28.80;1.00
6355;DHT22;3210;48.708;9.030;2023-09-12T10:35:21;28.80;1.00
6355;DHT22;3210;48.708;9.030;2023-09-12T10:37:49;28.90;1.00
6355;DHT22;3210;48.708;9.030;2023-09-12T10:40:17;29.00;1.00
6355;DHT22;3210;48.708;9.030;2023-09-12T10:42:47;29.10;1.00
6355;DHT22;3210;48.708;9.030;2023-09-12T10:45:14;29.20;1.00
6355;DHT22;3210;48.708;9.030;2023-09-12T10:47:42;29.30;1.00
6355;DHT22;3210;48.708;9.030;2023-09-12T10:50:10;29.50;1.00
6355;DHT22;3210;48.708;9.030;2023-09-12T10:52:38;29.50;1.00
6355;DHT22;3210;48.708;9.030;2023-09-12T10:55:07;29.50;1.00
6355;DHT22;3210;48.708;9.030;2023-09-12T10:57:34;29.50;1.00
6355;DHT22;3210;48.708;9.030;2023-09-12T11:00:11;29.70;1.00
6355;DHT22;3210;48.708;9.030;2023-09-12T11:02:39;29.80;1.00
6355;DHT22;3210;48.708;9.030;2023-09-12T11:05:38;29.70;1.00
6355;DHT22;3210;48.708;9.030;2023-09-12T11:08:17;29.80;1.00
6355;DHT22;3210;48.708;9.030;2023-09-12T11:10:44;29.90;1.00
6355;DHT22;3210;48.708;9.030;2023-09-12T11:13:17;29.70;1.00
6355;DHT22;3210;48.708;9.030;2023-09-12T11:16:11;29.80;1.00
6355;DHT22;3210;48.708;9.030;2023-09-12T11:21:39;30.10;1.00
6355;DHT22;3210;48.708;9.030;2023-09-12T11:24:07;30.00;1.00
6355;DHT22;3210;48.708;9.030;2023-09-12T11:26:33;30.00;1.00
6355;DHT22;3210;48.708;9.030;2023-09-12T11:29:10;30.20;1.00
6355;DHT22;3210;48.708;9.030;2023-09-12T11:31:38;30.40;1.00
6355;DHT22;3210;48.708;9.030;2023-09-12T11:34:08;30.50;1.00
6355;DHT22;3210;48.708;9.030;2023-09-12T11:36:41;30.40;1.00
6355;DHT22;3210;48.708;9.030;2023-09-12T11:39:22;30.50;1.00
6355;DHT22;3210;48.708;9.030;2023-09-12T11:41:50;30.50;1.00
6355;DHT22;3210;48.708;9.030;2023-09-12T11:44:18;30.50;1.00
6355;DHT22;3210;48.708;9.030;2023-09-12T11:46:47;30.50;1.00
6355;DHT22;3210;48.708;9.030;2023-09-12T11:49:14;30.50;1.00
6355;DHT22;3210;48.708;9.030;2023-09-12T11:51:48;30.60;1.00
6355;DHT22;3210;48.708;9.030;2023-09-12T11:54:15;30.60;1.00
6355;DHT22;3210;48.708;9.030;2023-09-12T11:56:42;30.60;1.00
6355;DHT22;3210;48.708;9.030;2023-09-12T11:59:09;30.40;1.00
6355;DHT22;3210;48.708;9.030;2023-09-12T12:01:36;30.40;1.00
6355;DHT22;3210;48.708;9.030;2023-09-12T12:04:03;30.40;1.00
6355;DHT22;3210;48.708;9.030;2023-09-12T12:06:32;30.20;1.00
6355;DHT22;3210;48.708;9.030;2023-09-12T12:09:02;30.10;1.00
6355;DHT22;3210;48.708;9.030;2023-09-12T12:11:30;30.20;1.00
6355;DHT22;3210;48.708;9.030;2023-09-12T12:13:57;30.30;1.00
6355;DHT22;3210;48.708;9.030;2023-09-12T12:16:25;30.30;1.00
6355;DHT22;3210;48.708;9.030;2023-09-12T12:18:52;30.40;1.00
6355;DHT22;3210;48.708;9.030;2023-09-12T12:21:21;30.50;1.00
6355;DHT22;3210;48.708;9.030;2023-09-12T12:23:57;30.90;1.00
6355;DHT22;3210;48.708;9.030;2023-09-12T12:26:26;31.00;1.00
6355;DHT22;3210;48.708;9.030;2023-09-12T12:28:53;30.90;1.00
6355;DHT22;3210;48.708;9.030;2023-09-12T12:31:20;30.90;1.00
6355;DHT22;3210;48.708;9.030;2023-09-12T12:33:50;30.80;1.00
6355;DHT22;3210;48.708;9.030;2023-09-12T12:36:17;31.00;1.00
6355;DHT22;3210;48.708;9.030;2023-09-12T12:38:46;31.20;1.00
6355;DHT22;3210;48.708;9.030;2023-09-12T12:41:13;31.30;1.00
6355;DHT22;3210;48.708;9.030;2023-09-12T12:43:43;31.40;1.00
6355;DHT22;3210;48.708;9.030;2023-09-12T12:46:11;31.40;1.00
6355;DHT22;3210;48.708;9.030;2023-09-12T12:48:42;31.60;1.00
6355;DHT22;3210;48.708;9.030;2023-09-12T12:51:14;31.40;1.00
6355;DHT22;3210;48.708;9.030;2023-09-12T12:53:43;31.60;1.00
6355;DHT22;3210;48.708;9.030;2023-09-12T12:56:12;31.60;1.00
6355;DHT22;3210;48.708;9.030;2023-09-12T12:58:46;31.60;1.00
6355;DHT22;3210;48.708;9.030;2023-09-12T13:01:14;31.60;1.00
6355;DHT22;3210;48.708;9.030;2023-09-12T13:03:41;31.70;1.00
6355;DHT22;3210;48.708;9.030;2023-09-12T13:06:08;31.50;1.00
6355;DHT22;3210;48.708;9.030;2023-09-12T13:08:39;31.50;1.00
6355;DHT22;3210;48.708;9.030;2023-09-12T13:11:07;31.40;1.00
6355;DHT22;3210;48.708;9.030;2023-09-12T13:13:34;31.20;1.00
6355;DHT22;3210;48.708;9.030;2023-09-12T13:16:03;30.80;1.00
6355;DHT22;3210;48.708;9.030;2023-09-12T13:18:31;29.90;1.00
6355;DHT22;3210;48.708;9.030;2023-09-12T13:20:58;29.50;1.00
6355;DHT22;3210;48.708;9.030;2023-09-12T13:23:25;29.30;1.00
6355;DHT22;3210;48.708;9.030;2023-09-12T13:25:52;29.10;1.00
6355;DHT22;3210;48.708;9.030;2023-09-12T13:28:19;29.20;1.00
6355;DHT22;3210;48.708;9.030;2023-09-12T13:30:46;29.10;1.00
6355;DHT22;3210;48.708;9.030;2023-09-12T13:33:14;29.00;1.00
6355;DHT22;3210;48.708;9.030;2023-09-12T13:35:42;28.80;1.00
6355;DHT22;3210;48.708;9.030;2023-09-12T13:38:08;28.70;1.00
6355;DHT22;3210;48.708;9.030;2023-09-12T13:40:36;28.60;1.00
6355;DHT22;3210;48.708;9.030;2023-09-12T13:43:04;28.40;1.00
6355;DHT22;3210;48.708;9.030;2023-09-12T13:45:31;28.40;1.00
6355;DHT22;3210;48.708;9.030;2023-09-12T13:47:58;28.30;1.00
6355;DHT22;3210;48.708;9.030;2023-09-12T13:50:26;28.40;1.00
6355;DHT22;3210;48.708;9.030;2023-09-12T13:52:54;28.50;1.00
6355;DHT22;3210;48.708;9.030;2023-09-12T13:55:21;28.70;1.00
6355;DHT22;3210;48.708;9.030;2023-09-12T13:57:48;29.00;1.00
6355;DHT22;3210;48.708;9.030;2023-09-12T14:00:15;29.20;1.00
6355;DHT22;3210;48.708;9.030;2023-09-12T14:02:42;29.00;1.00
6355;DHT22;3210;48.708;9.030;2023-09-12T14:05:09;29.10;1.00
6355;DHT22;3210;48.708;9.030;2023-09-12T14:07:38;29.00;1.00
6355;DHT22;3210;48.708;9.030;2023-09-12T14:10:06;28.80;1.00
6355;DHT22;3210;48.708;9.030;2023-09-12T14:12:33;28.80;1.00
6355;DHT22;3210;48.708;9.030;2023-09-12T14:15:00;28.80;1.00
6355;DHT22;3210;48.708;9.030;2023-09-12T14:17:28;28.70;1.00
6355;DHT22;3210;48.708;9.030;2023-09-12T14:19:55;28.60;1.00
6355;DHT22;3210;48.708;9.030;2023-09-12T14:22:22;28.50;1.00
6355;DHT22;3210;48.708;9.030;2023-09-12T14:24:50;28.50;1.00
6355;DHT22;3210;48.708;9.030;2023-09-12T14:27:17;28.30;1.00
6355;DHT22;3210;48.708;9.030;2023-09-12T14:29:44;28.20;1.00
6355;DHT22;3210;48.708;9.030;2023-09-12T14:32:11;28.10;1.00
6355;DHT22;3210;48.708;9.030;2023-09-12T14:34:38;28.10;1.00
6355;DHT22;3210;48.708;9.030;2023-09-12T14:37:05;28.00;1.00
6355;DHT22;3210;48.708;9.030;2023-09-12T14:39:31;27.90;1.00
6355;DHT22;3210;48.708;9.030;2023-09-12T14:42:00;27.90;1.00
6355;DHT22;3210;48.708;9.030;2023-09-12T14:44:31;27.80;1.00
6355;DHT22;3210;48.708;9.030;2023-09-12T14:46:58;27.80;1.00
6355;DHT22;3210;48.708;9.030;2023-09-12T14:49:25;27.80;1.00
6355;DHT22;3210;48.708;9.030;2023-09-12T14:51:52;27.80;1.00
6355;DHT22;3210;48.708;9.030;2023-09-12T14:54:19;27.80;1.00
6355;DHT22;3210;48.708;9.030;2023-09-12T14:56:48;27.70;1.00
6355;DHT22;3210;48.708;9.030;2023-09-12T14:59:17;27.80;1.00
6355;DHT22;3210;48.708;9.030;2023-09-12T15:01:44;27.80;1.00
6355;DHT22;3210;48.708;9.030;2023-09-12T15:04:11;27.80;1.00
6355;DHT22;3210;48.708;9.030;2023-09-12T15:06:38;28.00;1.00
6355;DHT22;3210;48.708;9.030;2023-09-12T15:09:05;27.90;1.00
6355;DHT22;3210;48.708;9.030;2023-09-12T15:11:32;27.90;1.00
6355;DHT22;3210;48.708;9.030;2023-09-12T15:13:59;28.00;1.00
6355;DHT22;3210;48.708;9.030;2023-09-12T15:16:27;27.90;1.00
6355;DHT22;3210;48.708;9.030;2023-09-12T15:18:59;28.00;1.00
6355;DHT22;3210;48.708;9.030;2023-09-12T15:21:26;28.00;1.00
6355;DHT22;3210;48.708;9.030;2023-09-12T15:23:53;28.20;1.00
6355;DHT22;3210;48.708;9.030;2023-09-12T15:26:20;28.10;1.00
6355;DHT22;3210;48.708;9.030;2023-09-12T15:28:46;28.00;1.00
6355;DHT22;3210;48.708;9.030;2023-09-12T15:31:13;27.90;1.00
6355;DHT22;3210;48.708;9.030;2023-09-12T15:33:41;27.80;1.00
6355;DHT22;3210;48.708;9.030;2023-09-12T15:36:08;27.70;1.00
6355;DHT22;3210;48.708;9.030;2023-09-12T15:38:35;27.70;1.00
6355;DHT22;3210;48.708;9.030;2023-09-12T15:41:02;27.50;1.00
6355;DHT22;3210;48.708;9.030;2023-09-12T15:43:49;27.40;1.00
6355;DHT22;3210;48.708;9.030;2023-09-12T15:46:16;27.40;1.00
6355;DHT22;3210;48.708;9.030;2023-09-12T15:48:42;27.40;1.00
6355;DHT22;3210;48.708;9.030;2023-09-12T15:51:08;27.30;1.00
6355;DHT22;3210;48.708;9.030;2023-09-12T15:53:35;27.30;1.00
6355;DHT22;3210;48.708;9.030;2023-09-12T15:56:02;27.20;1.00
6355;DHT22;3210;48.708;9.030;2023-09-12T15:58:28;27.10;1.00
6355;DHT22;3210;48.708;9.030;2023-09-12T16:00:57;27.10;1.00
6355;DHT22;3210;48.708;9.030;2023-09-12T16:03:25;27.20;1.00
6355;DHT22;3210;48.708;9.030;2023-09-12T16:05:52;27.20;1.00
6355;DHT22;3210;48.708;9.030;2023-09-12T16:08:18;27.20;1.00
6355;DHT22;3210;48.708;9.030;2023-09-12T16:10:47;27.30;1.00
6355;DHT22;3210;48.708;9.030;2023-09-12T16:13:14;27.40;1.00
6355;DHT22;3210;48.708;9.030;2023-09-12T16:15:41;27.40;1.00
6355;DHT22;3210;48.708;9.030;2023-09-12T16:18:09;27.50;1.00
6355;DHT22;3210;48.708;9.030;2023-09-12T16:20:35;27.50;1.00